Tiempo atmosférico en la estación meteorológica de Forua, Bizkaia (45 m.)



Fecha
DESCASC
Temp. máxima en grados centígrados (hora)
DESCASC
Temp. mínima en grados centígrados (hora)
DESCASC
Temp. media en grados centígrados
DESCASC
Racha de viento máxima en m/sg (hora)
DESCASC
Velocidad máxima media en intervalos de 10 minutos(hora)
DESCASC
Precipitaciones diarias en mm
DESCASC
Precipitaciones de 00:00 a 06:00 en mm
DESCASC
Precipitaciones de 06:00 a 12:00 en mm
DESCASC
Precipitaciones de 12:00 a 18:00 en mm
DESCASC
Precipitaciones de 18:00 a 24:00 en mm
DESCASC
31-08-2020 22.2 (13:40) 9.2 (00:00) 15.7 7.22 (17:00) 4.17 (15:00) 0.2 0 0.2 0 0
03-09-2020 27.3 (16:00) 10.4 (00:00) 18.8 7.5 (18:00) 4.72 (18:00) 0 0 0 0 0
09-09-2020 26.6 (13:50) 11.4 (00:00) 19 8.33 (14:30) 4.72 (14:20) 0 0 0 0 0
30-08-2020 20.1 (16:40) 11.4 (00:00) 15.8 8.06 (17:50) 4.72 (15:10) 15.6 1.4 7 1.8 5.4
08-09-2020 23.7 (13:50) 11.8 (00:00) 17.8 6.94 (14:30) 3.89 (16:20) 0 0 0 0 0
01-09-2020 24.6 (15:10) 11.9 (00:00) 18.3 7.5 (15:40) 4.44 (17:30) 0 0 0 0 0
13-09-2020 32.1 (17:10) 12.8 (00:00) 22.4 6.39 (18:10) 3.61 (15:30) 0 0 0 0 0
02-09-2020 24.3 (16:00) 12.8 (00:00) 18.5 6.94 (16:00) 3.89 (13:00) 0 0 0 0 0
12-09-2020 26.4 (15:30) 13.1 (00:00) 19.8 7.22 (18:30) 4.72 (18:40) 0 0 0 0 0
29-08-2020 19.5 (14:10) 13.1 (00:00) 16.3 12.22 (21:20) 6.67 (21:30) 15.6 1.2 1.8 8.2 4.4
24-08-2020 25.5 (15:20) 13.3 (00:00) 19.4 7.78 (13:30) 4.44 (17:10) 0 0 0 0 0
04-09-2020 35 (15:10) 13.3 (00:00) 24.2 7.78 (18:00) 4.72 (18:00) 0 0 0 0 0
25-08-2020 29.8 (13:20) 14.1 (00:00) 21.9 8.61 (14:00) 4.44 (16:20) 0 0 0 0 0
07-09-2020 21.5 (14:00) 14.3 (23:50) 17.9 8.06 (14:20) 4.44 (16:20) 1.4 0.8 0.6 0 0
10-09-2020 28 (15:40) 14.5 (00:00) 21.3 7.5 (17:00) 5 (17:00) 0 0 0 0 0
23-08-2020 26.4 (15:20) 14.9 (00:00) 20.6 7.78 (14:30) 4.72 (14:40) 0 0 0 0 0
28-08-2020 21.3 (00:00) 15.1 (00:00) 18.2 8.33 (05:50) 4.17 (06:00) 5.8 1.6 1.6 1.2 1.4
11-09-2020 26.5 (13:40) 15.1 (00:00) 20.8 7.5 (15:10) 3.89 (15:10) 0 0 0 0 0
22-08-2020 25 (12:50) 15.2 (00:00) 20.1 8.89 (16:00) 4.72 (14:50) 0 0 0 0 0
16-09-2020 28.4 (16:10) 15.7 (00:00) 22 7.5 (15:10) 4.44 (15:10) 0 0 0 0 0
19-09-2020 24.4 (11:30) 16.8 (00:00) 20.6 8.89 (00:30) 5.28 (16:10) 1 0 0 0.6 0.4
27-08-2020 30.2 (12:30) 16.9 (00:00) 23.6 9.72 (15:30) 5.28 (13:20) 0 0 0 0 0
06-09-2020 22.6 (12:50) 17.1 (00:00) 19.9 8.33 (15:50) 5 (15:50) 0 0 0 0 0
17-09-2020 29.4 (18:20) 17.2 (00:00) 23.3 5.83 (17:00) 3.33 (16:00) 1 0 0 1 0
15-09-2020 29.7 (12:30) 17.6 (00:00) 23.7 7.78 (15:10) 4.72 (15:30) 0 0 0 0 0
05-09-2020 24.3 (11:40) 18.5 (00:00) 21.4 7.78 (13:10) 4.17 (16:10) 0 0 0 0 0
18-09-2020 28.9 (15:50) 18.5 (00:00) 23.7 14.44 (03:20) 8.61 (03:10) 1.6 0 0 1.6 0
26-08-2020 27.4 (14:00) 18.6 (00:00) 23 7.22 (17:00) 4.17 (14:40) 0 0 0 0 0
21-08-2020 23.5 (11:00) 19.5 (00:00) 21.5 6.11 (15:20) 3.89 (15:20) 0.2 0 0 0.2 0
14-09-2020 37.5 (15:30) 20.1 (00:00) 28.8 11.67 (13:30) 6.94 (14:00) 0 0 0 0 0

Gráficas

Temp. máximas Temp. mínimas Temp. medias Precipitaciones Rachas de viento máximas Velocidades máximas media en intervalos de 10 minutos

Datos horarios

Fecha y hora oficial Temperatura (ºC) Velocidad del viento (km/h) Dirección del viento Racha (km/h) Dirección de racha Precipitación (mm) Presión (hPa) Tendencia (hPa) Humedad (%)
2020-09-19 23:00:00 17.3 10 Sudoeste 17 Noroeste 0 -- -- 94
2020-09-19 22:00:00 17.9 7 Sudoeste 11 Oeste 0 -- -- 92
2020-09-19 21:00:00 17.9 5 Oeste 9 Sudoeste 0 -- -- 92
2020-09-19 20:00:00 18.4 7 Sur 21 Noroeste 0.2 -- -- 90
2020-09-19 19:00:00 18.9 17 Noroeste 28 Noroeste 0.2 -- -- 84
2020-09-19 18:00:00 21.3 14 Norte 23 Norte 0 -- -- 74
2020-09-19 17:00:00 21.5 9 Norte 30 Noroeste 0 -- -- 76
2020-09-19 16:00:00 22.5 13 Norte 30 Noroeste 0 -- -- 69
2020-09-19 15:00:00 21.7 7 Oeste 21 Oeste 0.2 -- -- 78
2020-09-19 14:00:00 20.4 13 Oeste 22 Oeste 0.4 -- -- 78
2020-09-19 13:00:00 21.8 17 Sudoeste 29 Oeste 0 -- -- 71
2020-09-19 12:00:00 23.6 12 Sudoeste 24 Sudoeste 0 -- -- 57
2020-09-19 11:00:00 24 5 Sudoeste 20 Sudoeste 0 -- -- 57
2020-09-19 10:00:00 22.5 10 Sudoeste 18 Oeste 0 -- -- 63
2020-09-19 09:00:00 19.5 10 Sudoeste 19 Sudoeste 0 -- -- 72
2020-09-19 08:00:00 18.3 11 Oeste 17 Sur 0 -- -- 78
2020-09-19 07:00:00 17.2 6 Sur 13 Sudoeste 0 -- -- 83
2020-09-19 06:00:00 18 12 Sudoeste 15 Sudoeste 0 -- -- 78
2020-09-19 05:00:00 18 8 Oeste 13 Sudoeste 0 -- -- 79
2020-09-19 04:00:00 18.4 9 Sudoeste 14 Oeste 0 -- -- 76
2020-09-19 03:00:00 19.5 9 Sudoeste 15 Sudoeste 0 -- -- 72
2020-09-19 02:00:00 19.7 6 Sur 27 Oeste 0 -- -- 73
2020-09-19 01:00:00 20.8 8 Oeste 32 Oeste 0 -- -- 69
2020-09-19 00:00:00 18.6 4 Sur 15 Sudoeste 0 -- -- 88
2020-09-18 23:00:00 19.1 5 Oeste 11 Sudoeste 0 -- -- 84
2020-09-18 22:00:00 20.5 2 Oeste 7 Noroeste 0 -- -- 78
2020-09-18 21:00:00 21.5 5 Nordeste 9 Nordeste 0 -- -- 72
2020-09-18 20:00:00 23.3 0 Calma 9 Sudoeste 0 -- -- 62
2020-09-18 19:00:00 25.4 6 Sudoeste 10 Oeste 0 -- -- 53
2020-09-18 18:00:00 27.2 4 Sudoeste 25 Sudoeste 0 -- -- 44
2020-09-18 17:00:00 26 11 Oeste 29 Sur 0 -- -- 57
2020-09-18 16:00:00 28.8 9 Sur 27 Sudeste 0 -- -- 47
2020-09-18 15:00:00 27.9 8 Sudoeste 20 Sur 0 -- -- 47
2020-09-18 14:00:00 26.1 7 Sudoeste 20 Sudoeste 0 -- -- 54
2020-09-18 13:00:00 22.4 3 Sur 41 Oeste 1.6 -- -- 78
2020-09-18 12:00:00 24.5 13 Sudoeste 22 Sudoeste 0 -- -- 65
2020-09-18 11:00:00 23.2 6 Sudoeste 28 Sudoeste 0 -- -- 72
2020-09-18 10:00:00 23.5 5 Sur 22 Sudoeste 0 -- -- 68
2020-09-18 09:00:00 23.1 7 Sur 23 Sur 0 -- -- 69
2020-09-18 08:00:00 23.3 7 Sudoeste 26 Sudoeste 0 -- -- 63
2020-09-18 07:00:00 23.4 15 Sudoeste 32 Sudoeste 0 -- -- 62
2020-09-18 06:00:00 24.7 15 Sudoeste 37 Sudoeste 0 -- -- 58
2020-09-18 05:00:00 24.3 12 Sudoeste 28 Oeste 0 -- -- 60
2020-09-18 04:00:00 24.8 15 Sudoeste 52 Sudoeste 0 -- -- 61
2020-09-18 03:00:00 27.3 13 Sudoeste 31 Sudoeste 0 -- -- 50
2020-09-18 02:00:00 24.7 9 Sudoeste 17 Sudoeste 0 -- -- 59
2020-09-18 01:00:00 23.9 4 Oeste 15 Sudeste 0 -- -- 62
2020-09-18 00:00:00 23.8 3 Oeste 12 Sudoeste 0 -- -- 66
2020-09-17 23:00:00 24.2 4 Sudoeste 17 Sur 0 -- -- 70
2020-09-17 22:00:00 23 3 Norte 10 Norte 0 -- -- 77
2020-09-17 21:00:00 24.1 6 Norte 13 Nordeste 0 -- -- 74
2020-09-17 20:00:00 26.4 7 Norte 13 Norte 0 -- -- 64
2020-09-17 19:00:00 29 5 Nordeste 18 Sudeste 0 -- -- 55
2020-09-17 18:00:00 28.9 4 Norte 13 Nordeste 0 -- -- 53
2020-09-17 17:00:00 28.1 9 Nordeste 21 Nordeste 0 -- -- 58
2020-09-17 16:00:00 28.5 12 Norte 20 Nordeste 0 -- -- 61
2020-09-17 15:00:00 28.8 7 Norte 12 Nordeste 0 -- -- 70
2020-09-17 14:00:00 24.1 4 Nordeste 12 Norte 0 -- -- 88
2020-09-17 13:00:00 23 4 Sur 13 Oeste 1 -- -- 82
2020-09-17 12:00:00 23.9 2 Nordeste 5 Nordeste 0 -- -- 80
2020-09-17 11:00:00 23 3 Sudoeste 5 Sur 0 -- -- 83
2020-09-17 10:00:00 20.8 2 Sur 8 Sudoeste 0 -- -- 92
2020-09-17 09:00:00 18.7 5 Sudoeste 10 Sudoeste 0 -- -- 98
2020-09-17 08:00:00 17.6 4 Oeste 11 Oeste 0 -- -- 98
2020-09-17 07:00:00 17.5 5 Sudoeste 11 Oeste 0 -- -- 98
2020-09-17 06:00:00 17.4 2 Sur 9 Sudoeste 0 -- -- 98
2020-09-17 05:00:00 17.5 4 Sudoeste 9 Sudoeste 0 -- -- 97
2020-09-17 04:00:00 17.5 7 Sudoeste 9 Sudoeste 0 -- -- 97
2020-09-17 03:00:00 18.1 5 Sudoeste 9 Oeste 0 -- -- 96
2020-09-17 02:00:00 18.5 4 Sudoeste 8 Sur 0 -- -- 95
2020-09-17 01:00:00 19 5 Sudoeste 8 Sudoeste 0 -- -- 93
2020-09-17 00:00:00 19.6 5 Sudoeste 9 Oeste 0 -- -- 93
2020-09-16 23:00:00 20.2 0 Calma 6 Sudoeste 0 -- -- 89
2020-09-16 22:00:00 21.2 3 Norte 9 Norte 0 -- -- 86
2020-09-16 21:00:00 22.2 6 Norte 20 Norte 0 -- -- 83
2020-09-16 20:00:00 23 16 Norte 22 Norte 0 -- -- 81
2020-09-16 19:00:00 24.5 14 Norte 23 Norte 0 -- -- 77
2020-09-16 18:00:00 25.5 12 Nordeste 21 Norte 0 -- -- 74
2020-09-16 17:00:00 27.7 11 Nordeste 24 Norte 0 -- -- 64
2020-09-16 16:00:00 28.3 13 Norte 27 Norte 0 -- -- 61
2020-09-16 15:00:00 27.9 15 Norte 25 Norte 0 -- -- 68
2020-09-16 14:00:00 27.6 12 Nordeste 23 Norte 0 -- -- 68
2020-09-16 13:00:00 26.7 11 Nordeste 19 Nordeste 0 -- -- 72
2020-09-16 12:00:00 25.9 4 Norte 9 Nordeste 0 -- -- 66
2020-09-16 11:00:00 22.3 4 Oeste 7 Oeste 0 -- -- 80
2020-09-16 10:00:00 18.9 3 Sudoeste 9 Oeste 0 -- -- 94
2020-09-16 09:00:00 16.5 2 Sudoeste 5 Sudoeste 0 -- -- 98
2020-09-16 08:00:00 15.9 4 Sudoeste 9 Sudoeste 0 -- -- 98
2020-09-16 07:00:00 15.9 4 Sudoeste 8 Sudoeste 0 -- -- 97
2020-09-16 06:00:00 16 3 Sudoeste 8 Sudoeste 0 -- -- 96
2020-09-16 05:00:00 16.4 5 Sudoeste 6 Sudoeste 0 -- -- 96
2020-09-16 04:00:00 16.8 4 Sur 8 Sudoeste 0 -- -- 95
2020-09-16 03:00:00 17.3 4 Sudoeste 6 Sudoeste 0 -- -- 94
2020-09-16 02:00:00 17.9 4 Sudoeste 6 Oeste 0 -- -- 91
2020-09-16 01:00:00 18.4 0 Calma 3 Sudoeste 0 -- -- 89
2020-09-16 00:00:00 19.3 0 Calma 4 Oeste 0 -- -- 87
2020-09-15 23:00:00 20.2 4 Sudoeste 6 Oeste 0 -- -- 85
2020-09-15 22:00:00 21.1 3 Este 6 Nordeste 0 -- -- 84
2020-09-15 21:00:00 21.7 5 Nordeste 12 Norte 0 -- -- 78
2020-09-15 20:00:00 23.3 6 Norte 13 Nordeste 0 -- -- 78
2020-09-15 19:00:00 25.7 8 Nordeste 23 Norte 0 -- -- 69
2020-09-15 18:00:00 27.2 10 Norte 25 Norte 0 -- -- 61
2020-09-15 17:00:00 28.3 13 Norte 25 Norte 0 -- -- 57
2020-09-15 16:00:00 28.3 15 Norte 28 Nordeste 0 -- -- 59
2020-09-15 15:00:00 28.2 15 Norte 27 Noroeste 0 -- -- 64
2020-09-15 14:00:00 28.7 12 Nordeste 23 Nordeste 0 -- -- 61
2020-09-15 13:00:00 28.6 9 Nordeste 22 Norte 0 -- -- 59
2020-09-15 12:00:00 28.9 4 Nordeste 11 Sur 0 -- -- 52
2020-09-15 11:00:00 25.5 5 Sur 10 Sudoeste 0 -- -- 66
2020-09-15 10:00:00 21 6 Sudoeste 14 Sudoeste 0 -- -- 87
2020-09-15 09:00:00 18 4 Sudoeste 12 Sur 0 -- -- 97
2020-09-15 08:00:00 18.1 4 Oeste 8 Sur 0 -- -- 96
2020-09-15 07:00:00 18.8 6 Sur 13 Sudoeste 0 -- -- 94
2020-09-15 06:00:00 19.4 3 Noroeste 14 Sudoeste 0 -- -- 93
2020-09-15 05:00:00 19.6 10 Oeste 14 Oeste 0 -- -- 93
2020-09-15 04:00:00 19.2 6 Sur 14 Oeste 0 -- -- 93
2020-09-15 03:00:00 19.3 2 Sudoeste 6 Oeste 0 -- -- 90
2020-09-15 02:00:00 19.8 3 Sudoeste 8 Sur 0 -- -- 88
2020-09-15 01:00:00 19.5 3 Oeste 9 Sudeste 0 -- -- 84
2020-09-15 00:00:00 20.2 5 Sur 9 Sudoeste 0 -- -- 79
2020-09-14 23:00:00 21.2 7 Oeste 10 Oeste 0 -- -- 75
2020-09-14 22:00:00 21.8 0 Calma 13 Oeste 0 -- -- 72
2020-09-14 21:00:00 22.9 5 Sudoeste 10 Sur 0 -- -- 66
2020-09-14 20:00:00 24.5 5 Oeste 18 Oeste 0 -- -- 64
2020-09-14 19:00:00 25.6 5 Sudoeste 12 Norte 0 -- -- 60
2020-09-14 18:00:00 27 7 Norte 18 Norte 0 -- -- 52
2020-09-14 17:00:00 29.9 10 Nordeste 31 Norte 0 -- -- 47
2020-09-14 16:00:00 31.7 21 Norte 31 Norte 0 -- -- 47
2020-09-14 15:00:00 35.8 14 Oeste 33 Oeste 0 -- -- 29
2020-09-14 14:00:00 34.6 25 Oeste 42 Oeste 0 -- -- 31
2020-09-14 13:00:00 34.9 18 Sudoeste 33 Sudoeste 0 -- -- 31
2020-09-14 12:00:00 33.1 19 Oeste 30 Sudoeste 0 -- -- 34
2020-09-14 11:00:00 31.1 18 Sudoeste 32 Oeste 0 -- -- 38
2020-09-14 10:00:00 28.7 21 Oeste 34 Oeste 0 -- -- 41
2020-09-14 09:00:00 26.9 16 Oeste 27 Oeste 0 -- -- 43
2020-09-14 08:00:00 27.1 18 Oeste 29 Oeste 0 -- -- 41
2020-09-14 07:00:00 26.5 14 Oeste 24 Oeste 0 -- -- 43
2020-09-14 06:00:00 26 13 Sudoeste 23 Oeste 0 -- -- 47
2020-09-14 05:00:00 26.9 13 Sudoeste 19 Sudoeste 0 -- -- 44
2020-09-14 04:00:00 28 11 Sudoeste 17 Sudoeste 0 -- -- 40
2020-09-14 03:00:00 27.7 12 Oeste 18 Oeste 0 -- -- 39
2020-09-14 02:00:00 27.5 13 Oeste 18 Oeste 0 -- -- 39
2020-09-14 01:00:00 23.8 12 Oeste 16 Oeste 0 -- -- 52
2020-09-14 00:00:00 20.2 6 Sudoeste 13 Sudoeste 0 -- -- 88
2020-09-13 23:00:00 21.2 7 Sudoeste 12 Sudoeste 0 -- -- 85
2020-09-13 22:00:00 23.2 0 Calma 8 Norte 0 -- -- 76
2020-09-13 21:00:00 24.5 5 Norte 9 Nordeste 0 -- -- 72
2020-09-13 20:00:00 26.7 5 Norte 17 Norte 0 -- -- 65
2020-09-13 19:00:00 29.3 10 Norte 23 Norte 0 -- -- 57
2020-09-13 18:00:00 31.2 11 Norte 20 Norte 0 -- -- 52
2020-09-13 17:00:00 31.8 11 Norte 22 Norte 0 -- -- 46
2020-09-13 16:00:00 31.8 12 Norte 22 Nordeste 0 -- -- 47
2020-09-13 15:00:00 31.1 10 Nordeste 17 Norte 0 -- -- 49
2020-09-13 14:00:00 30.4 6 Norte 11 Norte 0 -- -- 51
2020-09-13 13:00:00 29.8 3 Norte 8 Norte 0 -- -- 51
2020-09-13 12:00:00 26.6 2 Sudeste 5 Este 0 -- -- 62
2020-09-13 11:00:00 22 0 Calma 6 Sur 0 -- -- 75
2020-09-13 10:00:00 17.9 3 Sudoeste 10 Sur 0 -- -- 91
2020-09-13 09:00:00 14.5 5 Sudoeste 11 Sudoeste 0 -- -- 100
2020-09-13 08:00:00 13 4 Sudoeste 12 Sudoeste 0 -- -- 99
2020-09-13 07:00:00 13 8 Sudoeste 11 Sudoeste 0 -- -- 99
2020-09-13 06:00:00 13 6 Sudoeste 9 Sudoeste 0 -- -- 98
2020-09-13 05:00:00 13.4 4 Sudoeste 9 Sudoeste 0 -- -- 97
2020-09-13 04:00:00 13.9 5 Sudoeste 11 Sudoeste 0 -- -- 97
2020-09-13 03:00:00 14.2 8 Sudoeste 10 Oeste 0 -- -- 97
2020-09-13 02:00:00 14.9 3 Sudoeste 9 Oeste 0 -- -- 96
2020-09-13 01:00:00 15.4 4 Oeste 8 Sudoeste 0 -- -- 95
2020-09-13 00:00:00 16.4 5 Oeste 7 Oeste 0 -- -- 92
2020-09-12 23:00:00 17.5 4 Sudoeste 7 Oeste 0 -- -- 90
2020-09-12 22:00:00 18.7 0 Calma 5 Nordeste 0 -- -- 85
2020-09-12 21:00:00 20 2 Oeste 14 Norte 0 -- -- 80
2020-09-12 20:00:00 21.5 9 Norte 22 Norte 0 -- -- 77
2020-09-12 19:00:00 23.8 14 Norte 26 Norte 0 -- -- 68
2020-09-12 18:00:00 25.5 12 Norte 22 Norte 0 -- -- 63
2020-09-12 17:00:00 25 13 Este 21 Nordeste 0 -- -- 60
2020-09-12 16:00:00 26.2 12 Nordeste 25 Norte 0 -- -- 59
2020-09-12 15:00:00 26.3 13 Norte 24 Norte 0 -- -- 60
2020-09-12 14:00:00 26.2 13 Norte 24 Norte 0 -- -- 65
2020-09-12 13:00:00 25.3 11 Norte 19 Norte 0 -- -- 69
2020-09-12 12:00:00 24.1 7 Norte 13 Nordeste 0 -- -- 75
2020-09-12 11:00:00 20.9 2 Norte 6 Oeste 0 -- -- 83
2020-09-12 10:00:00 17.4 4 Sudoeste 8 Sur 0 -- -- 99
2020-09-12 09:00:00 14.7 2 Sur 9 Oeste 0 -- -- 100
2020-09-12 08:00:00 13.1 4 Sudoeste 10 Sudoeste 0 -- -- 99
2020-09-12 07:00:00 13.4 7 Sudoeste 9 Sudoeste 0 -- -- 99
2020-09-12 06:00:00 13.8 4 Sudoeste 8 Oeste 0 -- -- 99
2020-09-12 05:00:00 14.5 5 Sudoeste 8 Sur 0 -- -- 98
2020-09-12 04:00:00 14.9 6 Sudoeste 9 Sudoeste 0 -- -- 98
2020-09-12 03:00:00 15.3 7 Oeste 8 Oeste 0 -- -- 97
2020-09-12 02:00:00 15.8 6 Sudoeste 10 Sudoeste 0 -- -- 96
2020-09-12 01:00:00 16.6 5 Sudoeste 7 Sudoeste 0 -- -- 95
2020-09-12 00:00:00 17.9 3 Oeste 7 Nordeste 0 -- -- 95
2020-09-11 23:00:00 18.9 4 Nordeste 11 Norte 0 -- -- 92
2020-09-11 22:00:00 19.8 3 Nordeste 14 Este 0 -- -- 89
2020-09-11 21:00:00 20.2 6 Nordeste 14 Nordeste 0 -- -- 86
2020-09-11 20:00:00 22 6 Nordeste 16 Norte 0 -- -- 78
2020-09-11 19:00:00 24.4 9 Norte 18 Norte 0 -- -- 73
2020-09-11 18:00:00 24.3 8 Nordeste 19 Este 0 -- -- 73
2020-09-11 17:00:00 24.4 12 Este 24 Norte 0 -- -- 74
2020-09-11 16:00:00 24.9 12 Nordeste 27 Norte 0 -- -- 72
2020-09-11 15:00:00 26.1 14 Norte 23 Nordeste 0 -- -- 70
2020-09-11 14:00:00 26 12 Nordeste 23 Nordeste 0 -- -- 70
2020-09-11 13:00:00 25.8 9 Norte 15 Nordeste 0 -- -- 70
2020-09-11 12:00:00 24.9 6 Norte 12 Norte 0 -- -- 71
2020-09-11 11:00:00 22.3 3 Norte 10 Sudoeste 0 -- -- 79
2020-09-11 10:00:00 18.8 7 Sudoeste 11 Sudoeste 0 -- -- 95
2020-09-11 09:00:00 16.3 6 Sudoeste 9 Sudoeste 0 -- -- 99
2020-09-11 08:00:00 15.1 3 Oeste 12 Sudoeste 0 -- -- 99
2020-09-11 07:00:00 15.6 6 Sudoeste 9 Sudoeste 0 -- -- 98
2020-09-11 06:00:00 16 2 Sudoeste 7 Sudoeste 0 -- -- 97
2020-09-11 05:00:00 16.3 3 Sudoeste 8 Sudoeste 0 -- -- 98
2020-09-11 04:00:00 16.5 5 Oeste 7 Oeste 0 -- -- 98
2020-09-11 03:00:00 16.4 3 Sudoeste 8 Sudoeste 0 -- -- 98
2020-09-11 02:00:00 16.6 4 Sudoeste 6 Sur 0 -- -- 98
2020-09-11 01:00:00 17 2 Oeste 4 Oeste 0 -- -- 96
2020-09-11 00:00:00 17.7 3 Oeste 5 Oeste 0 -- -- 96
2020-09-10 23:00:00 18.5 4 Sur 8 Sudoeste 0 -- -- 93
2020-09-10 22:00:00 19.6 0 Calma 6 Norte 0 -- -- 90
2020-09-10 21:00:00 20.4 4 Norte 8 Norte 0 -- -- 87
2020-09-10 20:00:00 22 3 Nordeste 15 Norte 0 -- -- 82
2020-09-10 19:00:00 23.8 13 Norte 22 Norte 0 -- -- 76
2020-09-10 18:00:00 26 10 Norte 24 Nordeste 0 -- -- 65
2020-09-10 17:00:00 25.6 18 Norte 27 Norte 0 -- -- 67
2020-09-10 16:00:00 27.5 12 Norte 20 Norte 0 -- -- 59
2020-09-10 15:00:00 27.8 11 Norte 19 Norte 0 -- -- 47
2020-09-10 14:00:00 26.9 7 Norte 15 Norte 0 -- -- 58
2020-09-10 13:00:00 26 3 Noroeste 14 Sudeste 0 -- -- 57
2020-09-10 12:00:00 24.7 6 Sudeste 15 Sudoeste 0 -- -- 60
2020-09-10 11:00:00 22.2 6 Sudoeste 13 Oeste 0 -- -- 75
2020-09-10 10:00:00 18.8 8 Sudoeste 13 Sudoeste 0 -- -- 87
2020-09-10 09:00:00 15.8 8 Sudoeste 13 Sudoeste 0 -- -- 96
2020-09-10 08:00:00 14.9 8 Sudoeste 13 Sudoeste 0 -- -- 97
2020-09-10 07:00:00 15.1 7 Sudoeste 12 Sudoeste 0 -- -- 97
2020-09-10 06:00:00 15.4 8 Sudoeste 12 Sudoeste 0 -- -- 97
2020-09-10 05:00:00 15.6 6 Sudoeste 10 Sudoeste 0 -- -- 97
2020-09-10 04:00:00 15.2 7 Sudoeste 11 Sudoeste 0 -- -- 97
2020-09-10 03:00:00 14.5 5 Sur 10 Sur 0 -- -- 94
2020-09-10 02:00:00 14.6 6 Sudoeste 7 Oeste 0 -- -- 93
2020-09-10 01:00:00 15.1 6 Sudoeste 9 Oeste 0 -- -- 90
2020-09-10 00:00:00 15.8 2 Sur 8 Sur 0 -- -- 84
2020-09-09 23:00:00 16.8 5 Sudoeste 8 Sudoeste 0 -- -- 84
2020-09-09 22:00:00 18.3 2 Sudeste 9 Sudoeste 0 -- -- 82
2020-09-09 21:00:00 20.1 5 Sur 6 Sur 0 -- -- 77
2020-09-09 20:00:00 22.2 2 Norte 17 Norte 0 -- -- 71
2020-09-09 19:00:00 24.3 12 Norte 22 Norte 0 -- -- 56
2020-09-09 18:00:00 25.2 12 Norte 24 Norte 0 -- -- 68
2020-09-09 17:00:00 25.7 12 Norte 26 Norte 0 -- -- 61
2020-09-09 16:00:00 25.7 13 Norte 27 Nordeste 0 -- -- 64
2020-09-09 15:00:00 26.1 14 Norte 30 Norte 0 -- -- 61
2020-09-09 14:00:00 26.4 13 Nordeste 24 Nordeste 0 -- -- 63
2020-09-09 13:00:00 26.1 9 Norte 17 Nordeste 0 -- -- 63
2020-09-09 12:00:00 24.5 3 Sur 8 Sudeste 0 -- -- 54
2020-09-09 11:00:00 20.8 5 Sudeste 9 Sudeste 0 -- -- 68
2020-09-09 10:00:00 17 3 Sudoeste 10 Oeste 0 -- -- 85
2020-09-09 09:00:00 13.3 5 Sudoeste 10 Sudoeste 0 -- -- 97
2020-09-09 08:00:00 11.5 5 Sudoeste 10 Sur 0 -- -- 97
2020-09-09 07:00:00 11.9 7 Sudoeste 13 Oeste 0 -- -- 97
2020-09-09 06:00:00 11.9 5 Sudoeste 11 Sudoeste 0 -- -- 96
2020-09-09 05:00:00 12.4 6 Sur 10 Sudoeste 0 -- -- 96
2020-09-09 04:00:00 12.7 6 Sudoeste 10 Sudoeste 0 -- -- 96
2020-09-09 03:00:00 13 6 Sudoeste 9 Sudoeste 0 -- -- 95
2020-09-09 02:00:00 13.4 8 Sudoeste 12 Sudoeste 0 -- -- 94
2020-09-09 01:00:00 14 7 Sudoeste 9 Sudoeste 0 -- -- 93
2020-09-09 00:00:00 15 4 Sudoeste 7 Oeste 0 -- -- 89
2020-09-08 23:00:00 16.1 4 Sudoeste 7 Oeste 0 -- -- 84
2020-09-08 22:00:00 17.5 4 Nordeste 8 Nordeste 0 -- -- 81
2020-09-08 21:00:00 19.2 3 Nordeste 7 Nordeste 0 -- -- 72
2020-09-08 20:00:00 20.5 3 Nordeste 19 Este 0 -- -- 68
2020-09-08 19:00:00 21.8 10 Este 19 Este 0 -- -- 59
2020-09-08 18:00:00 22.4 11 Este 21 Este 0 -- -- 57
2020-09-08 17:00:00 23.1 9 Este 24 Este 0 -- -- 58
2020-09-08 16:00:00 23.5 10 Este 22 Este 0 -- -- 57
2020-09-08 15:00:00 23.7 10 Nordeste 25 Nordeste 0 -- -- 54
2020-09-08 14:00:00 23.6 13 Este 21 Este 0 -- -- 52
2020-09-08 13:00:00 23.3 10 Nordeste 23 Este 0 -- -- 55
2020-09-08 12:00:00 22.6 9 Nordeste 18 Norte 0 -- -- 59
2020-09-08 11:00:00 19.5 2 Noroeste 8 Sur 0 -- -- 73
2020-09-08 10:00:00 16.3 4 Sudoeste 8 Oeste 0 -- -- 87
2020-09-08 09:00:00 -- 4 Sudoeste 8 Sudoeste 0 -- -- --
2020-09-08 08:00:00 11.8 4 Sudoeste 10 Oeste 0 -- -- 97
2020-09-08 07:00:00 12.4 5 Sur 9 Sudoeste 0 -- -- 96
2020-09-08 06:00:00 13.1 4 Sudoeste 6 Sudoeste 0 -- -- 95
2020-09-08 05:00:00 13.7 4 Sudoeste 8 Sur 0 -- -- 92
2020-09-08 04:00:00 14 5 Sur 9 Sudoeste 0 -- -- 93
2020-09-08 03:00:00 13.6 3 Sudoeste 9 Sudoeste 0 -- -- 92
2020-09-08 02:00:00 13.8 5 Sudoeste 9 Sudoeste 0 -- -- 92
2020-09-08 01:00:00 14 5 Sudoeste 10 Sudoeste 0 -- -- 91
2020-09-08 00:00:00 14.3 6 Sudoeste 10 Sudoeste 0 -- -- 90
2020-09-07 23:00:00 15.4 7 Sudoeste 9 Sudoeste 0 -- -- 85
2020-09-07 22:00:00 16.8 4 Oeste 8 Sudoeste 0 -- -- 79
2020-09-07 21:00:00 17.8 2 Nordeste 12 Nordeste 0 -- -- 72
2020-09-07 20:00:00 19.3 7 Nordeste 17 Nordeste 0 -- -- 65
2020-09-07 19:00:00 20.5 8 Nordeste 20 Nordeste 0 -- -- 60
2020-09-07 18:00:00 20.4 12 Este 26 Este 0 -- -- 63
2020-09-07 17:00:00 20.5 13 Este 27 Este 0 -- -- 59
2020-09-07 16:00:00 20.9 15 Este 27 Nordeste 0 -- -- 58
2020-09-07 15:00:00 21.2 14 Este 29 Este 0 -- -- 53
2020-09-07 14:00:00 21.5 12 Este 27 Sudeste 0 -- -- 53
2020-09-07 13:00:00 20.9 9 Este 22 Este 0 -- -- 57
2020-09-07 12:00:00 19.9 13 Este 21 Este 0 -- -- 64
2020-09-07 11:00:00 17.2 4 Sudeste 6 Sur 0 -- -- 94
2020-09-07 10:00:00 15.6 2 Sudoeste 13 Oeste 0.2 -- -- 99
2020-09-07 09:00:00 14.9 7 Sudoeste 13 Oeste 0.2 -- -- 98
2020-09-07 08:00:00 14.6 4 Sudoeste 9 Sudoeste 0.2 -- -- 97
2020-09-07 07:00:00 14.6 6 Sudoeste 12 Sudoeste 0 -- -- 95
2020-09-07 06:00:00 15.1 8 Oeste 12 Sudoeste 0.8 -- -- 93
2020-09-07 05:00:00 15.5 8 Oeste 9 Oeste 0 -- -- 88
2020-09-07 04:00:00 15.8 5 Sudoeste 9 Sudoeste 0 -- -- 86
2020-09-07 03:00:00 16.8 2 Noroeste 8 Nordeste 0 -- -- 80
2020-09-07 02:00:00 17.4 5 Nordeste 13 Nordeste 0 -- -- 74
2020-09-07 01:00:00 17.7 6 Nordeste 16 Este 0 -- -- 73
2020-09-07 00:00:00 17.8 7 Nordeste 17 Este 0 -- -- 72
2020-09-06 23:00:00 17.9 8 Nordeste 23 Nordeste 0 -- -- 73
2020-09-06 22:00:00 18.2 5 Este 15 Sudeste 0 -- -- 74
2020-09-06 21:00:00 18.4 6 Nordeste 20 Nordeste 0 -- -- 71
2020-09-06 20:00:00 18.9 8 Nordeste 19 Este 0 -- -- 67
2020-09-06 19:00:00 19.3 7 Nordeste 21 Este 0 -- -- 68
2020-09-06 18:00:00 19.8 9 Este 18 Nordeste 0 -- -- 68
2020-09-06 17:00:00 20.4 9 Nordeste 27 Nordeste 0 -- -- 66
2020-09-06 16:00:00 19.7 13 Norte 30 Norte 0 -- -- 72
2020-09-06 15:00:00 22 8 Norte 22 Norte 0 -- -- 64
2020-09-06 14:00:00 22.4 9 Nordeste 25 Nordeste 0 -- -- 62
2020-09-06 13:00:00 22.2 11 Norte 22 Norte 0 -- -- 58
2020-09-06 12:00:00 21.3 7 Norte 13 Nordeste 0 -- -- 62
2020-09-06 11:00:00 19.7 3 Sur 10 Sudeste 0 -- -- 72
2020-09-06 10:00:00 17.8 3 Sudoeste 8 Sur 0 -- -- 85
2020-09-06 09:00:00 17.2 5 Sudoeste 8 Sudoeste 0 -- -- 85
2020-09-06 08:00:00 17.3 2 Sudoeste 8 Noroeste 0 -- -- 78
2020-09-06 07:00:00 17.5 5 Norte 10 Norte 0 -- -- 77
2020-09-06 06:00:00 17.7 3 Norte 7 Nordeste 0 -- -- 78
2020-09-06 05:00:00 18 4 Nordeste 18 Nordeste 0 -- -- 79
2020-09-06 04:00:00 18.3 6 Nordeste 13 Nordeste 0 -- -- 77
2020-09-06 03:00:00 18.4 6 Nordeste 13 Nordeste 0 -- -- 79
2020-09-06 02:00:00 18.5 5 Nordeste 17 Nordeste 0 -- -- 82
2020-09-06 01:00:00 18.8 6 Este 15 Este 0 -- -- 85
2020-09-06 00:00:00 18.8 5 Nordeste 11 Nordeste 0 -- -- 83
2020-09-05 23:00:00 19 5 Nordeste 9 Nordeste 0 -- -- 80
2020-09-05 22:00:00 19.3 5 Este 14 Nordeste 0 -- -- 78
2020-09-05 21:00:00 19.4 7 Nordeste 15 Nordeste 0 -- -- 77
2020-09-05 20:00:00 20 9 Nordeste 22 Nordeste 0 -- -- 79
2020-09-05 19:00:00 20.8 8 Nordeste 18 Nordeste 0 -- -- 78
2020-09-05 18:00:00 21.5 9 Nordeste 22 Nordeste 0 -- -- 76
2020-09-05 17:00:00 22.6 12 Nordeste 26 Norte 0 -- -- 74
2020-09-05 16:00:00 23.4 14 Norte 28 Norte 0 -- -- 72
2020-09-05 15:00:00 23.5 10 Nordeste 26 Nordeste 0 -- -- 71
2020-09-05 14:00:00 23.4 10 Nordeste 28 Norte 0 -- -- 70
2020-09-05 13:00:00 23.3 12 Nordeste 25 Nordeste 0 -- -- 71
2020-09-05 12:00:00 23.3 10 Nordeste 21 Nordeste 0 -- -- 73
2020-09-05 11:00:00 23.9 11 Nordeste 21 Nordeste 0 -- -- 72
2020-09-05 10:00:00 22.5 9 Nordeste 16 Nordeste 0 -- -- 79
2020-09-05 09:00:00 20 3 Nordeste 8 Nordeste 0 -- -- 90
2020-09-05 08:00:00 19.6 2 Nordeste 8 Oeste 0 -- -- 92
2020-09-05 07:00:00 20.1 4 Noroeste 18 Oeste 0 -- -- 89
2020-09-05 06:00:00 19.9 7 Sudoeste 23 Noroeste 0 -- -- 89
2020-09-05 05:00:00 18.8 4 Oeste 10 Oeste 0 -- -- 98
2020-09-05 04:00:00 18.6 3 Norte 9 Norte 0 -- -- 98
2020-09-05 03:00:00 18.8 0 Calma 3 Norte 0 -- -- 96
2020-09-05 02:00:00 18.6 2 Nordeste 6 Noroeste 0 -- -- 95
2020-09-05 01:00:00 19.3 3 Sudoeste 6 Sur 0 -- -- 92
2020-09-05 00:00:00 19.8 2 Sur 5 Sudoeste 0 -- -- 87
2020-09-04 23:00:00 20.5 0 Calma 8 Sudoeste 0 -- -- 83
2020-09-04 22:00:00 22 0 Calma 5 Norte 0 -- -- 76
2020-09-04 21:00:00 23.2 3 Nordeste 17 Norte 0 -- -- 67
2020-09-04 20:00:00 24.8 13 Norte 23 Norte 0 -- -- 65
2020-09-04 19:00:00 27.3 10 Norte 25 Norte 0 -- -- 61
2020-09-04 18:00:00 29.1 17 Norte 28 Norte 0 -- -- 55
2020-09-04 17:00:00 30.4 10 Nordeste 22 Norte 0 -- -- 54
2020-09-04 16:00:00 30.8 11 Norte 24 Nordeste 0 -- -- 53
2020-09-04 15:00:00 34.9 6 Sudoeste 22 Oeste 0 -- -- 34
2020-09-04 14:00:00 33.2 10 Sudoeste 21 Sudoeste 0 -- -- 38
2020-09-04 13:00:00 30.5 8 Sur 14 Sudeste 0 -- -- 44
2020-09-04 12:00:00 27.7 5 Sudeste 9 Sudeste 0 -- -- 52
2020-09-04 11:00:00 23.8 3 Sur 8 Sur 0 -- -- 71
2020-09-04 10:00:00 19 4 Sudoeste 12 Sudoeste 0 -- -- 88
2020-09-04 09:00:00 15.5 6 Sudoeste 11 Sudoeste 0 -- -- 99
2020-09-04 08:00:00 13.6 6 Sudoeste 10 Sudoeste 0 -- -- 99
2020-09-04 07:00:00 13.5 6 Sudoeste 10 Sudoeste 0 -- -- 98
2020-09-04 06:00:00 13.9 8 Sudoeste 12 Sudoeste 0 -- -- 99
2020-09-04 05:00:00 14.1 5 Sudoeste 10 Sur 0 -- -- 98
2020-09-04 04:00:00 14.3 9 Sudoeste 12 Sudoeste 0 -- -- 98
2020-09-04 03:00:00 14.5 6 Sudoeste 8 Sudoeste 0 -- -- 96
2020-09-04 02:00:00 15 6 Sudoeste 8 Sudoeste 0 -- -- 96
2020-09-04 01:00:00 15.6 5 Sudoeste 8 Sudoeste 0 -- -- 94
2020-09-04 00:00:00 16.7 5 Sudoeste 7 Sudoeste 0 -- -- 92
2020-09-03 23:00:00 17.3 6 Sudoeste 8 Sudoeste 0 -- -- 90
2020-09-03 22:00:00 19.2 3 Nordeste 11 Norte 0 -- -- 85
2020-09-03 21:00:00 20.6 7 Norte 12 Noroeste 0 -- -- 79
2020-09-03 20:00:00 22.8 6 Norte 22 Norte 0 -- -- 70
2020-09-03 19:00:00 25.1 13 Norte 26 Norte 0 -- -- 60
2020-09-03 18:00:00 26.1 17 Norte 27 Norte 0 -- -- 54
2020-09-03 17:00:00 26.9 15 Norte 26 Norte 0 -- -- 52
2020-09-03 16:00:00 27.3 12 Norte 22 Norte 0 -- -- 54
2020-09-03 15:00:00 26.9 13 Norte 22 Norte 0 -- -- 56
2020-09-03 14:00:00 26.4 8 Norte 18 Norte 0 -- -- 53
2020-09-03 13:00:00 25.3 7 Nordeste 16 Nordeste 0 -- -- 54
2020-09-03 12:00:00 23.6 4 Nordeste 8 Oeste 0 -- -- 58
2020-09-03 11:00:00 20.3 3 Sudoeste 6 Oeste 0 -- -- 67
2020-09-03 10:00:00 15.9 4 Sudoeste 10 Sudoeste 0 -- -- 86
2020-09-03 09:00:00 12.7 6 Sudoeste 12 Sudoeste 0 -- -- 96
2020-09-03 08:00:00 10.6 4 Sudoeste 11 Sudoeste 0 -- -- 98
2020-09-03 07:00:00 10.6 6 Sur 10 Sudoeste 0 -- -- 97
2020-09-03 06:00:00 10.9 5 Sudoeste 9 Sudoeste 0 -- -- 96
2020-09-03 05:00:00 11 5 Sudoeste 9 Sudoeste 0 -- -- 96
2020-09-03 04:00:00 11.2 6 Sudoeste 9 Sudoeste 0 -- -- 94
2020-09-03 03:00:00 11.7 5 Sudoeste 9 Oeste 0 -- -- 94
2020-09-03 02:00:00 12.2 5 Sudoeste 8 Sudoeste 0 -- -- 92
2020-09-03 01:00:00 12.8 6 Sudoeste 9 Sudoeste 0 -- -- 90
2020-09-03 00:00:00 13.5 7 Sudoeste 9 Sudoeste 0 -- -- 87
2020-09-02 23:00:00 14.7 4 Sudoeste 7 Sudoeste 0 -- -- 81
2020-09-02 22:00:00 16.7 4 Sudoeste 10 Oeste 0 -- -- 72
2020-09-02 21:00:00 19.1 3 Norte 11 Nordeste 0 -- -- 61
2020-09-02 20:00:00 21.1 3 Nordeste 17 Este 0 -- -- 55
2020-09-02 19:00:00 22.3 12 Este 19 Este 0 -- -- 48
2020-09-02 18:00:00 23.1 11 Este 23 Sudeste 0 -- -- 47
2020-09-02 17:00:00 23.7 12 Este 25 Este 0 -- -- 43
2020-09-02 16:00:00 24.3 10 Este 25 Este 0 -- -- 47
2020-09-02 15:00:00 23.8 12 Este 24 Este 0 -- -- 54
2020-09-02 14:00:00 23.6 13 Este 24 Nordeste 0 -- -- 52
2020-09-02 13:00:00 23.4 14 Este 24 Este 0 -- -- 54
2020-09-02 12:00:00 23.3 7 Norte 17 Nordeste 0 -- -- 68
2020-09-02 11:00:00 21.2 5 Sudeste 10 Sur 0 -- -- 78
2020-09-02 10:00:00 16.9 3 Sudoeste 8 Sudoeste 0 -- -- 98
2020-09-02 09:00:00 14.9 3 Sur 9 Sudoeste 0 -- -- 99
2020-09-02 08:00:00 13 5 Sudoeste 8 Sudoeste 0 -- -- 99
2020-09-02 07:00:00 13 6 Sudoeste 8 Oeste 0 -- -- 99
2020-09-02 06:00:00 13 5 Sudoeste 7 Sudoeste 0 -- -- 99
2020-09-02 05:00:00 13.1 5 Sudoeste 8 Sur 0 -- -- 98
2020-09-02 04:00:00 13.6 5 Sudoeste 8 Sudoeste 0 -- -- 97
2020-09-02 03:00:00 14.1 4 Sudoeste 6 Sudoeste 0 -- -- 97
2020-09-02 02:00:00 14.7 4 Sudoeste 6 Sudoeste 0 -- -- 95
2020-09-02 01:00:00 15.4 0 Calma 6 Oeste 0 -- -- 93
2020-09-02 00:00:00 16.3 4 Sudoeste 6 Sudoeste 0 -- -- 91
2020-09-01 23:00:00 17.1 4 Sudoeste 7 Oeste 0 -- -- 88
2020-09-01 22:00:00 18.1 4 Sudoeste 7 Sur 0 -- -- 84
2020-09-01 21:00:00 19.5 3 Norte 14 Norte 0 -- -- 76
2020-09-01 20:00:00 21.6 10 Norte 21 Norte 0 -- -- 68
2020-09-01 19:00:00 23.4 12 Norte 26 Nordeste 0 -- -- 67
2020-09-01 18:00:00 23.6 14 Norte 26 Nordeste 0 -- -- 69
2020-09-01 17:00:00 23.9 13 Nordeste 27 Nordeste 0 -- -- 66
2020-09-01 16:00:00 24.5 14 Norte 27 Norte 0 -- -- 68
2020-09-01 15:00:00 24.1 12 Norte 23 Norte 0 -- -- 66
2020-09-01 14:00:00 22.9 13 Norte 24 Nordeste 0 -- -- 69
2020-09-01 13:00:00 24.2 8 Nordeste 15 Norte 0 -- -- 60
2020-09-01 12:00:00 22.5 5 Nordeste 10 Nordeste 0 -- -- 65
2020-09-01 11:00:00 19.8 4 Sudoeste 9 Sudoeste 0 -- -- 66
2020-09-01 10:00:00 16.4 4 Sudoeste 8 Sudoeste 0 -- -- 84
2020-09-01 09:00:00 13.9 3 Sudoeste 8 Sudoeste 0 -- -- 95
2020-09-01 08:00:00 12 6 Sudoeste 7 Sudoeste 0 -- -- 97
2020-09-01 07:00:00 12.2 3 Sudoeste 9 Sudoeste 0 -- -- 96
2020-09-01 06:00:00 12.5 4 Sur 9 Sur 0 -- -- 97
2020-09-01 05:00:00 12.7 5 Sudoeste 9 Sudoeste 0 -- -- 97
2020-09-01 04:00:00 12.8 3 Sudoeste 8 Sudoeste 0 -- -- 97
2020-09-01 03:00:00 13.1 6 Sudoeste 11 Sudoeste 0 -- -- 96
2020-09-01 02:00:00 13.5 5 Sudoeste 6 Sudoeste 0 -- -- 96
2020-09-01 01:00:00 13.9 0 Calma 9 Sudoeste 0 -- -- 95
2020-09-01 00:00:00 14.7 5 Sudoeste 7 Sudoeste 0 -- -- 92
2020-08-31 23:00:00 15.3 7 Oeste 9 Oeste 0 -- -- 91
2020-08-31 22:00:00 16.9 0 Calma 7 Nordeste 0 -- -- 83
2020-08-31 21:00:00 17.9 4 Norte 11 Norte 0 -- -- 76
2020-08-31 20:00:00 19.7 6 Norte 17 Este 0 -- -- 71
2020-08-31 19:00:00 20.8 11 Este 22 Este 0 -- -- 65
2020-08-31 18:00:00 21 13 Este 24 Este 0 -- -- 64
2020-08-31 17:00:00 22 14 Este 26 Este 0 -- -- 60
2020-08-31 16:00:00 21.8 14 Este 22 Este 0 -- -- 61
2020-08-31 15:00:00 22.1 15 Este 25 Este 0 -- -- 61
2020-08-31 14:00:00 22.1 11 Este 19 Este 0 -- -- 60
2020-08-31 13:00:00 21.3 6 Sudeste 13 Este 0 -- -- 58
2020-08-31 12:00:00 19.8 5 Sur 12 Sudeste 0 -- -- 69
2020-08-31 11:00:00 16.5 7 Sudoeste 13 Sudoeste 0 -- -- 92
2020-08-31 10:00:00 13.4 8 Sudoeste 13 Sudoeste 0 -- -- 100
2020-08-31 09:00:00 11.2 4 Sur 11 Sudoeste 0 -- -- 100
2020-08-31 08:00:00 9.4 6 Sudoeste 9 Sudoeste 0 -- -- 100
2020-08-31 07:00:00 9.4 5 Sudoeste 9 Sudoeste 0.2 -- -- 100
2020-08-31 06:00:00 9.9 6 Sudoeste 12 Sudoeste 0 -- -- 100
2020-08-31 05:00:00 10 8 Sudoeste 10 Sudoeste 0 -- -- 100
2020-08-31 04:00:00 10.4 6 Sudoeste 9 Sudoeste 0 -- -- 100
2020-08-31 03:00:00 10.8 6 Sudoeste 9 Sudoeste 0 -- -- 100
2020-08-31 02:00:00 11.3 4 Sudoeste 7 Sudoeste 0 -- -- 100
2020-08-31 01:00:00 12.1 5 Sudoeste 7 Oeste 0 -- -- 100
2020-08-31 00:00:00 12.8 4 Sudoeste 7 Sudoeste 0 -- -- 99
2020-08-30 23:00:00 13.1 0 Calma 5 Sudoeste 0 -- -- 98
2020-08-30 22:00:00 14.1 2 Sudoeste 6 Sur 0.2 -- -- 99
2020-08-30 21:00:00 14.7 3 Sur 6 Sur 0 -- -- 97
2020-08-30 20:00:00 15.6 3 Sudeste 9 Oeste 0 -- -- 97
2020-08-30 19:00:00 15.4 6 Oeste 19 Noroeste 5.2 -- -- 96
2020-08-30 18:00:00 15.9 14 Norte 29 Norte 1.8 -- -- 87
2020-08-30 17:00:00 19.1 15 Norte 27 Norte 0 -- -- 71
2020-08-30 16:00:00 19.9 16 Norte 25 Noroeste 0 -- -- 65
2020-08-30 15:00:00 18.7 14 Norte 27 Norte 0 -- -- 74
2020-08-30 14:00:00 17.7 7 Oeste 15 Noroeste 0 -- -- 82
2020-08-30 13:00:00 17.3 6 Sudoeste 15 Sudoeste 0 -- -- 92
2020-08-30 12:00:00 14 11 Sudoeste 19 Sur 0 -- -- 99
2020-08-30 11:00:00 12.6 4 Oeste 22 Sudoeste 2.2 -- -- 97
2020-08-30 10:00:00 12.6 8 Sudeste 27 Norte 4.2 -- -- 97
2020-08-30 09:00:00 12.6 3 Norte 13 Sudoeste 0.2 -- -- 100
2020-08-30 08:00:00 12.1 9 Sudoeste 13 Sudoeste 0.2 -- -- 99
2020-08-30 07:00:00 11.6 5 Sur 13 Sur 0.2 -- -- 99
2020-08-30 06:00:00 11.6 8 Sudoeste 14 Sudeste 0 -- -- 98
2020-08-30 05:00:00 12.3 10 Oeste 20 Noroeste 1.4 -- -- 100
2020-08-30 04:00:00 11.6 7 Sudoeste 20 Sudoeste 0 -- -- 99
2020-08-30 03:00:00 11.7 8 Sudoeste 14 Sudoeste 0 -- -- 99
2020-08-30 02:00:00 11.8 8 Sudoeste 18 Sudoeste 0 -- -- 99
2020-08-30 01:00:00 12.4 10 Sudoeste 15 Sudoeste 0 -- -- 98
2020-08-30 00:00:00 13.1 11 Sudoeste 15 Sudoeste 0 -- -- 97
2020-08-29 23:00:00 13.7 8 Sudoeste 16 Norte 0 -- -- 94
2020-08-29 22:00:00 14.8 13 Norte 44 Norte 1.4 -- -- 87
2020-08-29 21:00:00 14.8 6 Nordeste 35 Noroeste 1.4 -- -- 96
2020-08-29 20:00:00 15.9 3 Noroeste 24 Norte 0.6 -- -- 93
2020-08-29 19:00:00 16.2 7 Sudoeste 17 Noroeste 1 -- -- 96
2020-08-29 18:00:00 16.2 4 Norte 35 Norte 4.8 -- -- 93
2020-08-29 17:00:00 18.9 4 Nordeste 17 Noroeste 0.4 -- -- 85
2020-08-29 16:00:00 16.9 5 Sur 20 Noroeste 2 -- -- 95
2020-08-29 15:00:00 17 12 Noroeste 30 Norte 0.2 -- -- 83
2020-08-29 14:00:00 19.2 14 Norte 32 Noroeste 0.2 -- -- 77
2020-08-29 13:00:00 17.4 10 Noroeste 29 Noroeste 0.6 -- -- 86
2020-08-29 12:00:00 16.9 13 Noroeste 23 Noroeste 0.4 -- -- 86
2020-08-29 11:00:00 16 8 Sudoeste 40 Oeste 0.4 -- -- 90
2020-08-29 10:00:00 15.3 8 Sudoeste 19 Oeste 0.6 -- -- 95
2020-08-29 09:00:00 14.7 5 Sur 14 Sur 0 -- -- 93
2020-08-29 08:00:00 14.6 8 Sur 28 Sudoeste 0.4 -- -- 93
2020-08-29 07:00:00 15.2 14 Noroeste 35 Oeste 0 -- -- 89
2020-08-29 06:00:00 15.3 14 Noroeste 38 Noroeste 0 -- -- 88
2020-08-29 05:00:00 15.7 17 Noroeste 36 Oeste 0.4 -- -- 87
2020-08-29 04:00:00 15.4 7 Sudoeste 30 Oeste 0 -- -- 88
2020-08-29 03:00:00 15 12 Sudoeste 29 Oeste 0.4 -- -- 96
2020-08-29 02:00:00 14.7 2 Norte 13 Sudoeste 0.4 -- -- 99
2020-08-29 01:00:00 14.8 8 Sudoeste 16 Sudoeste 0 -- -- 99
2020-08-29 00:00:00 15.1 8 Sudoeste 14 Sudoeste 0 -- -- 98
2020-08-28 23:00:00 15.6 6 Sudoeste 10 Oeste 0 -- -- 98
2020-08-28 22:00:00 15.9 5 Sudoeste 12 Sur 0 -- -- 97
2020-08-28 21:00:00 16.1 8 Sudoeste 14 Sudoeste 0 -- -- 97
2020-08-28 20:00:00 16.7 7 Sudoeste 10 Sudoeste 0.2 -- -- 96
2020-08-28 19:00:00 17.2 5 Sudoeste 14 Oeste 1.2 -- -- 95
2020-08-28 18:00:00 17.7 6 Sudoeste 12 Sudoeste 0 -- -- 93
2020-08-28 17:00:00 17.7 3 Sudoeste 11 Sudoeste 0.8 -- -- 92
2020-08-28 16:00:00 18.5 5 Sudoeste 15 Norte 0 -- -- 88
2020-08-28 15:00:00 18 7 Norte 26 Noroeste 0 -- -- 86
2020-08-28 14:00:00 18.1 7 Noroeste 23 Oeste 0.4 -- -- 87
2020-08-28 13:00:00 18.4 7 Sudoeste 14 Sudoeste 0 -- -- 92
2020-08-28 12:00:00 17.7 8 Sudoeste 20 Nordeste 0.2 -- -- 93
2020-08-28 11:00:00 17.6 4 Oeste 12 Sudoeste 1 -- -- 95
2020-08-28 10:00:00 17.8 5 Sudoeste 13 Oeste 0 -- -- 94
2020-08-28 09:00:00 17.8 0 Calma 7 Sudoeste 0 -- -- 95
2020-08-28 08:00:00 17.8 4 Norte 17 Noroeste 0 -- -- 91
2020-08-28 07:00:00 18.3 9 Nordeste 27 Nordeste 0.4 -- -- 95
2020-08-28 06:00:00 19.3 15 Norte 30 Norte 1.6 -- -- 94
2020-08-28 05:00:00 20.3 8 Oeste 12 Sudoeste 0 -- -- 97
2020-08-28 04:00:00 20.5 2 Sudoeste 10 Sudoeste 0 -- -- 96
2020-08-28 03:00:00 20.6 6 Sudoeste 9 Sudoeste 0 -- -- 96
2020-08-28 02:00:00 20.9 3 Sudoeste 6 Sur 0 -- -- 94
2020-08-28 01:00:00 21.3 2 Sur 4 Sur 0 -- -- 91
2020-08-28 00:00:00 21.3 0 Calma 9 Sudoeste 0 -- -- 91
2020-08-27 23:00:00 21.9 4 Sur 6 Sur 0 -- -- 88
2020-08-27 22:00:00 22.4 2 Norte 7 Norte 0 -- -- 87
2020-08-27 21:00:00 22.9 3 Nordeste 10 Nordeste 0 -- -- 82
2020-08-27 20:00:00 23.4 5 Nordeste 14 Nordeste 0 -- -- 81
2020-08-27 19:00:00 24 7 Nordeste 15 Nordeste 0 -- -- 78
2020-08-27 18:00:00 25 8 Nordeste 18 Nordeste 0 -- -- 75
2020-08-27 17:00:00 25.3 13 Nordeste 29 Nordeste 0 -- -- 75
2020-08-27 16:00:00 27.5 14 Nordeste 35 Nordeste 0 -- -- 68
2020-08-27 15:00:00 27.8 16 Nordeste 30 Nordeste 0 -- -- 64
2020-08-27 14:00:00 28.7 17 Nordeste 33 Nordeste 0 -- -- 63
2020-08-27 13:00:00 29.4 13 Norte 24 Nordeste 0 -- -- 61
2020-08-27 12:00:00 29.2 6 Sudoeste 13 Sudoeste 0 -- -- 57
2020-08-27 11:00:00 25.4 6 Sudoeste 13 Oeste 0 -- -- 75
2020-08-27 10:00:00 21.8 6 Sur 9 Sur 0 -- -- 93
2020-08-27 09:00:00 18.6 2 Sur 10 Sudoeste 0 -- -- 100
2020-08-27 08:00:00 17 7 Sudoeste 10 Sudoeste 0 -- -- 100
2020-08-27 07:00:00 17.1 4 Sudoeste 8 Sudoeste 0 -- -- 99
2020-08-27 06:00:00 17.2 6 Sudoeste 8 Sudoeste 0 -- -- 98
2020-08-27 05:00:00 17.8 3 Sudoeste 10 Oeste 0 -- -- 98
2020-08-27 04:00:00 18.2 6 Oeste 8 Oeste 0 -- -- 97
2020-08-27 03:00:00 19 2 Sur 8 Sudoeste 0 -- -- 97
2020-08-27 02:00:00 19.4 7 Oeste 10 Sur 0 -- -- 95
2020-08-27 01:00:00 20.5 5 Sudoeste 9 Sudoeste 0 -- -- 93
2020-08-27 00:00:00 21.1 3 Oeste 10 Nordeste 0 -- -- 92
2020-08-26 23:00:00 21.5 5 Nordeste 10 Nordeste 0 -- -- 92
2020-08-26 22:00:00 21.9 6 Nordeste 13 Nordeste 0 -- -- 90
2020-08-26 21:00:00 22.8 7 Nordeste 16 Nordeste 0 -- -- 85
2020-08-26 20:00:00 24.4 8 Nordeste 19 Nordeste 0 -- -- 79
2020-08-26 19:00:00 25.3 10 Este 23 Este 0 -- -- 76
2020-08-26 18:00:00 25.9 13 Este 25 Este 0 -- -- 74
2020-08-26 17:00:00 26.6 14 Este 26 Este 0 -- -- 70
2020-08-26 16:00:00 27.1 11 Este 23 Este 0 -- -- 67
2020-08-26 15:00:00 26.4 11 Este 25 Este 0 -- -- 72
2020-08-26 14:00:00 27.4 15 Este 24 Este 0 -- -- 70
2020-08-26 13:00:00 27.1 9 Norte 19 Norte 0 -- -- 69
2020-08-26 12:00:00 25.9 7 Norte 12 Norte 0 -- -- 74
2020-08-26 11:00:00 25 3 Nordeste 10 Sudeste 0 -- -- 74
2020-08-26 10:00:00 21.8 3 Sudoeste 6 Sudoeste 0 -- -- 88
2020-08-26 09:00:00 19.8 3 Sudoeste 6 Sudoeste 0 -- -- 94
2020-08-26 08:00:00 18.9 0 Calma 6 Sudoeste 0 -- -- 96
2020-08-26 07:00:00 18.7 6 Sudoeste 9 Sudoeste 0 -- -- 96
2020-08-26 06:00:00 18.7 0 Calma 7 Sudoeste 0 -- -- 96
2020-08-26 05:00:00 18.8 6 Oeste 9 Sudoeste 0 -- -- 94
2020-08-26 04:00:00 19.9 0 Calma 4 Sudoeste 0 -- -- 91
2020-08-26 03:00:00 20.9 3 Oeste 6 Sudoeste 0 -- -- 88
2020-08-26 02:00:00 21 5 Sudoeste 12 Sudoeste 0 -- -- 88
2020-08-26 01:00:00 21 5 Sudoeste 6 Oeste 0 -- -- 88
2020-08-26 00:00:00 21.1 2 Sudoeste 8 Sudoeste 0 -- -- 87
2020-08-25 23:00:00 21.2 4 Sur 8 Oeste 0 -- -- 86
2020-08-25 22:00:00 21.3 4 Sudoeste 7 Oeste 0 -- -- 84
2020-08-25 21:00:00 22.3 4 Nordeste 15 Nordeste 0 -- -- 81
2020-08-25 20:00:00 24.4 9 Nordeste 23 Nordeste 0 -- -- 71
2020-08-25 19:00:00 25.9 12 Nordeste 29 Nordeste 0 -- -- 63
2020-08-25 18:00:00 27.4 11 Nordeste 24 Norte 0 -- -- 54
2020-08-25 17:00:00 27.5 13 Norte 28 Nordeste 0 -- -- 60
2020-08-25 16:00:00 28.1 13 Nordeste 29 Norte 0 -- -- 58
2020-08-25 15:00:00 29.3 14 Nordeste 31 Este 0 -- -- 47
2020-08-25 14:00:00 29.2 16 Nordeste 31 Nordeste 0 -- -- 44
2020-08-25 13:00:00 29.6 12 Nordeste 23 Norte 0 -- -- 46
2020-08-25 12:00:00 29.5 8 Norte 16 Nordeste 0 -- -- 52
2020-08-25 11:00:00 27.3 6 Sur 10 Sudoeste 0 -- -- 53
2020-08-25 10:00:00 21.5 5 Sudoeste 11 Sur 0 -- -- 74
2020-08-25 09:00:00 17 7 Sudoeste 12 Sudoeste 0 -- -- 92
2020-08-25 08:00:00 14.7 10 Sudoeste 13 Oeste 0 -- -- 98
2020-08-25 07:00:00 14.4 8 Sudoeste 12 Sudoeste 0 -- -- 98
2020-08-25 06:00:00 14.3 7 Sudoeste 14 Sudoeste 0 -- -- 98
2020-08-25 05:00:00 14.3 9 Sudoeste 15 Sudoeste 0 -- -- 97
2020-08-25 04:00:00 14.3 6 Sur 12 Sudoeste 0 -- -- 97
2020-08-25 03:00:00 15 5 Sudoeste 10 Sudoeste 0 -- -- 96
2020-08-25 02:00:00 15.3 6 Sudoeste 9 Sudoeste 0 -- -- 94
2020-08-25 01:00:00 15.9 6 Sudoeste 7 Oeste 0 -- -- 92
2020-08-25 00:00:00 17.3 0 Calma 4 Oeste 0 -- -- 90
2020-08-24 23:00:00 18.3 3 Nordeste 6 Norte 0 -- -- 86
2020-08-24 22:00:00 19.1 4 Norte 7 Norte 0 -- -- 81
2020-08-24 21:00:00 20.9 4 Este 21 Este 0 -- -- 73
2020-08-24 20:00:00 22.4 12 Este 28 Este 0 -- -- 65
2020-08-24 19:00:00 23.6 14 Este 24 Sudeste 0 -- -- 63
2020-08-24 18:00:00 23.9 14 Este 27 Este 0 -- -- 64
2020-08-24 17:00:00 24.7 14 Este 26 Este 0 -- -- 62
2020-08-24 16:00:00 24.7 15 Este 25 Este 0 -- -- 61
2020-08-24 15:00:00 25.4 12 Este 25 Este 0 -- -- 58
2020-08-24 14:00:00 25.3 8 Nordeste 28 Este 0 -- -- 60
2020-08-24 13:00:00 23.9 8 Norte 15 Norte 0 -- -- 66
2020-08-24 12:00:00 24.1 9 Nordeste 16 Norte 0 -- -- 62
2020-08-24 11:00:00 21.6 3 Nordeste 8 Sudoeste 0 -- -- 77
2020-08-24 10:00:00 16.7 0 Calma 10 Oeste 0 -- -- 97
2020-08-24 09:00:00 14.5 6 Sudoeste 9 Sudoeste 0 -- -- 99
2020-08-24 08:00:00 13.7 5 Sudoeste 8 Sudoeste 0 -- -- 99
2020-08-24 07:00:00 13.6 6 Sudoeste 9 Sudoeste 0 -- -- 98
2020-08-24 06:00:00 13.8 5 Sudoeste 7 Sudoeste 0 -- -- 98
2020-08-24 05:00:00 13.9 3 Sudoeste 8 Sudoeste 0 -- -- 97
2020-08-24 04:00:00 14.4 6 Sudoeste 9 Oeste 0 -- -- 97
2020-08-24 03:00:00 14.8 0 Calma 6 Sudoeste 0 -- -- 96
2020-08-24 02:00:00 15.4 4 Sudoeste 8 Sudoeste 0 -- -- 94
2020-08-24 01:00:00 16.2 2 Sudoeste 6 Sudoeste 0 -- -- 92
2020-08-24 00:00:00 16.9 4 Sur 8 Sudoeste 0 -- -- 90
2020-08-23 23:00:00 17.8 5 Oeste 6 Oeste 0 -- -- 88
2020-08-23 22:00:00 19.2 3 Nordeste 5 Nordeste 0 -- -- 81
2020-08-23 21:00:00 20.3 3 Nordeste 14 Este 0 -- -- 76
2020-08-23 20:00:00 21.9 8 Este 17 Este 0 -- -- 71
2020-08-23 19:00:00 22.6 12 Este 21 Este 0 -- -- 68
2020-08-23 18:00:00 23.8 12 Nordeste 21 Este 0 -- -- 62
2020-08-23 17:00:00 25.6 10 Nordeste 24 Norte 0 -- -- 57
2020-08-23 16:00:00 25.2 12 Nordeste 24 Nordeste 0 -- -- 59
2020-08-23 15:00:00 26 13 Nordeste 28 Norte 0 -- -- 59
2020-08-23 14:00:00 25.8 13 Nordeste 27 Norte 0 -- -- 62
2020-08-23 13:00:00 25.3 10 Nordeste 22 Norte 0 -- -- 57
2020-08-23 12:00:00 24.3 5 Nordeste 10 Nordeste 0 -- -- 61
2020-08-23 11:00:00 22.2 6 Sudeste 13 Sudeste 0 -- -- 74
2020-08-23 10:00:00 19.8 6 Sudoeste 10 Sudoeste 0 -- -- 89
2020-08-23 09:00:00 16.5 7 Sudoeste 13 Sudoeste 0 -- -- 100
2020-08-23 08:00:00 15.1 5 Sur 11 Sudoeste 0 -- -- 99
2020-08-23 07:00:00 15.1 6 Sudoeste 10 Sudoeste 0 -- -- 98
2020-08-23 06:00:00 15.3 6 Oeste 8 Oeste 0 -- -- 98
2020-08-23 05:00:00 16 3 Sudoeste 6 Sudoeste 0 -- -- 97
2020-08-23 04:00:00 16.3 4 Sudoeste 6 Sudoeste 0 -- -- 97
2020-08-23 03:00:00 16.4 0 Calma 7 Sudoeste 0 -- -- 95
2020-08-23 02:00:00 17.3 3 Sudoeste 6 Sudoeste 0 -- -- 93
2020-08-23 01:00:00 18.1 0 Calma 6 Oeste 0 -- -- 91
2020-08-23 00:00:00 19.2 4 Oeste 6 Oeste 0 -- -- 87
2020-08-22 23:00:00 20.1 0 Calma 5 Norte 0 -- -- 85
2020-08-22 22:00:00 20.4 4 Norte 7 Noroeste 0 -- -- 83
2020-08-22 21:00:00 20.8 0 Calma 12 Este 0 -- -- 79
2020-08-22 20:00:00 21.3 6 Nordeste 18 Nordeste 0 -- -- 78
2020-08-22 19:00:00 21.8 9 Norte 22 Norte 0 -- -- 76
2020-08-22 18:00:00 22.6 11 Nordeste 24 Nordeste 0 -- -- 69
2020-08-22 17:00:00 22.7 12 Nordeste 25 Nordeste 0 -- -- 72
2020-08-22 16:00:00 22.6 14 Nordeste 32 Nordeste 0 -- -- 76
2020-08-22 15:00:00 24.3 16 Nordeste 31 Nordeste 0 -- -- 73
2020-08-22 14:00:00 24.5 14 Nordeste 28 Nordeste 0 -- -- 73
2020-08-22 13:00:00 24.9 10 Norte 19 Norte 0 -- -- 68
2020-08-22 12:00:00 22.4 8 Norte 15 Nordeste 0 -- -- 79
2020-08-22 11:00:00 21 4 Oeste 11 Sudoeste 0 -- -- 83
2020-08-22 10:00:00 19.4 6 Sudoeste 9 Sudoeste 0 -- -- 90
2020-08-22 09:00:00 17.8 4 Sudoeste 9 Sudoeste 0 -- -- 96
2020-08-22 08:00:00 15.7 4 Oeste 8 Sudoeste 0 -- -- 100
2020-08-22 07:00:00 15.4 5 Oeste 6 Oeste 0 -- -- 99
2020-08-22 06:00:00 15.2 4 Sur 9 Sur 0 -- -- 98
2020-08-22 05:00:00 15.7 6 Sudoeste 9 Sudoeste 0 -- -- 98
2020-08-22 04:00:00 16 0 Calma 8 Sudoeste 0 -- -- 97
2020-08-22 03:00:00 16.7 3 Sudoeste 6 Sudoeste 0 -- -- 96
2020-08-22 02:00:00 17.4 4 Oeste 9 Sudoeste 0 -- -- 95
2020-08-22 01:00:00 18.6 5 Sudoeste 9 Sudoeste 0 -- -- 94
2020-08-22 00:00:00 19.5 2 Sur 5 Sudoeste 0 -- -- 92
2020-08-21 23:00:00 19.9 4 Sudoeste 8 Sudoeste 0 -- -- 91
2020-08-21 22:00:00 20.3 5 Sudoeste 9 Noroeste 0 -- -- 89
2020-08-21 21:00:00 21.3 4 Sudeste 11 Este 0 -- -- 82
2020-08-21 20:00:00 21.6 6 Este 18 Este 0 -- -- 80
2020-08-21 19:00:00 22.2 8 Este 15 Este 0 -- -- 76
2020-08-21 18:00:00 22.1 4 Este 19 Sudeste 0 -- -- 77
2020-08-21 17:00:00 22.7 11 Este 22 Este 0 -- -- 74
2020-08-21 16:00:00 23.1 12 Este 22 Este 0 -- -- 70
2020-08-21 15:00:00 23.4 9 Este 17 Este 0 -- -- 74
2020-08-21 14:00:00 22 8 Este 15 Este 0.2 -- -- 77
2020-08-21 13:00:00 22 10 Norte 21 Norte 0 -- -- 82
2020-08-21 12:00:00 22.9 8 Nordeste 18 Nordeste 0 -- -- 82
2020-08-21 11:00:00 23.5 5 Nordeste 12 Norte 0 -- -- 87
2020-08-21 10:00:00 23.1 2 Nordeste 5 Nordeste 0 -- -- 87
2020-08-21 09:00:00 21.9 2 Oeste 5 Sudoeste 0 -- -- 93
2020-08-21 08:00:00 21.5 4 Sudoeste 9 Sudoeste 0 -- -- 92
2020-08-21 07:00:00 21.3 5 Sudoeste 8 Sudoeste 0 -- -- 91
2020-08-21 06:00:00 21.6 5 Oeste 12 Sudoeste 0 -- -- 88
2020-08-21 05:00:00 21.4 6 Sur 9 Sudeste 0 -- -- 83
2020-08-21 04:00:00 21.3 6 Oeste 14 Sudoeste 0 -- -- 84
2020-08-21 03:00:00 21.6 6 Sudoeste 12 Sudoeste 0 -- -- 84
2020-08-21 02:00:00 21.8 5 Oeste 10 Sudoeste 0 -- -- 87
2020-08-21 01:00:00 22.2 6 Sur 12 Sudoeste 0 -- -- 85
2020-08-21 00:00:00 22.4 8 Sudoeste 20 Sudoeste 0 -- -- 87